createdAt,value
2023-05-26T00:00:36.403Z,69.26
2023-05-26T00:03:10.732Z,70.25
2023-05-26T00:05:44.629Z,70.31
2023-05-26T00:08:18.322Z,70.41
2023-05-26T00:10:52.198Z,70.38
2023-05-26T00:13:25.883Z,70.31
2023-05-26T00:15:59.189Z,69.93
2023-05-26T00:18:34.767Z,70.35
2023-05-26T00:21:08.037Z,70.67
2023-05-26T00:23:41.419Z,71.07
2023-05-26T00:26:15.125Z,70.89
2023-05-26T00:28:48.718Z,71.06
2023-05-26T00:31:22.051Z,72.14
2023-05-26T00:33:55.049Z,71.40
2023-05-26T00:36:28.334Z,71.84
2023-05-26T00:39:01.634Z,71.54
2023-05-26T00:41:35.159Z,72.09
2023-05-26T00:44:08.593Z,71.62
2023-05-26T00:46:42.200Z,71.96
2023-05-26T00:49:16.014Z,71.98
2023-05-26T00:51:51.039Z,71.28
2023-05-26T00:54:25.756Z,71.93
2023-05-26T00:57:00.121Z,72.26
2023-05-26T00:59:34.234Z,72.60
2023-05-26T01:02:07.905Z,71.70
2023-05-26T01:04:42.195Z,71.98
2023-05-26T01:07:15.466Z,72.29
2023-05-26T01:09:49.766Z,71.53
2023-05-26T01:12:34.573Z,72.44
2023-05-26T01:15:14.240Z,72.64
2023-05-26T01:17:58.681Z,72.21
2023-05-26T01:20:40.524Z,72.38
2023-05-26T01:23:39.716Z,72.25
2023-05-26T01:26:43.624Z,72.56
2023-05-26T01:29:21.003Z,72.45
2023-05-26T01:31:54.923Z,72.75
2023-05-26T01:34:28.499Z,72.48
2023-05-26T01:37:01.903Z,72.47
2023-05-26T01:39:36.355Z,72.80
2023-05-26T01:42:30.762Z,72.25
2023-05-26T01:45:13.447Z,73.95
2023-05-26T01:47:51.659Z,73.02
2023-05-26T01:50:36.874Z,73.51
2023-05-26T01:53:14.606Z,73.58
2023-05-26T01:55:50.499Z,73.45
2023-05-26T01:58:25.028Z,74.06
2023-05-26T02:00:59.298Z,73.92
2023-05-26T02:03:32.793Z,73.61
2023-05-26T02:06:06.388Z,73.87
2023-05-26T02:08:39.660Z,74.11
2023-05-26T02:11:12.939Z,73.76
2023-05-26T02:13:47.228Z,74.56
2023-05-26T02:16:22.794Z,74.88
2023-05-26T02:18:58.045Z,74.44
2023-05-26T02:21:32.451Z,74.00
2023-05-26T02:24:06.116Z,74.05
2023-05-26T02:26:39.434Z,75.32
2023-05-26T02:29:13.289Z,74.88
2023-05-26T02:31:46.332Z,74.63
2023-05-26T02:34:20.062Z,75.51
2023-05-26T02:36:56.311Z,75.27
2023-05-26T02:39:30.999Z,75.16
2023-05-26T02:42:04.312Z,76.20
2023-05-26T02:44:37.575Z,75.59
2023-05-26T02:47:10.897Z,75.89
2023-05-26T02:49:44.658Z,77.27
2023-05-26T02:52:18.311Z,77.20
2023-05-26T02:54:52.190Z,77.02
2023-05-26T02:57:25.536Z,77.14
2023-05-26T02:59:58.857Z,76.46
2023-05-26T03:02:31.992Z,77.03
2023-05-26T03:05:05.766Z,76.76
2023-05-26T03:07:39.184Z,76.93
2023-05-26T03:10:14.683Z,76.60
2023-05-26T03:12:47.941Z,76.44
2023-05-26T03:15:21.239Z,76.19
2023-05-26T03:17:54.554Z,76.06
2023-05-26T03:20:28.219Z,76.06
2023-05-26T03:23:01.923Z,76.13
2023-05-26T03:25:35.402Z,75.75
2023-05-26T03:28:08.644Z,75.97
2023-05-26T03:30:41.902Z,77.17
2023-05-26T03:33:15.151Z,76.30
2023-05-26T03:35:48.704Z,75.83
2023-05-26T03:38:22.384Z,76.25
2023-05-26T03:40:56.384Z,75.88
2023-05-26T03:43:29.984Z,76.44
2023-05-26T03:46:03.333Z,76.87
2023-05-26T03:48:36.601Z,76.90
2023-05-26T03:51:10.156Z,77.15
2023-05-26T03:53:43.827Z,77.40
2023-05-26T03:56:17.113Z,77.05
2023-05-26T03:58:50.366Z,77.21
2023-05-26T04:01:23.712Z,77.41
2023-05-26T04:03:57.059Z,77.81
2023-05-26T04:06:31.469Z,77.29
2023-05-26T04:09:05.612Z,78.36
2023-05-26T04:11:38.926Z,79.02
2023-05-26T04:14:12.181Z,78.86
2023-05-26T04:16:46.174Z,79.63
2023-05-26T04:19:19.430Z,79.03
2023-05-26T04:21:53.321Z,79.25
2023-05-26T04:24:28.050Z,78.35
2023-05-26T04:27:03.216Z,79.00
2023-05-26T04:29:36.708Z,79.42
2023-05-26T04:32:13.094Z,79.13
2023-05-26T04:34:46.989Z,79.73
2023-05-26T04:37:20.356Z,79.03
2023-05-26T04:39:53.723Z,78.56
2023-05-26T04:42:27.172Z,79.90
2023-05-26T04:45:01.574Z,78.86
2023-05-26T04:47:36.125Z,79.86
2023-05-26T04:50:13.473Z,78.91
2023-05-26T04:52:47.513Z,79.06
2023-05-26T04:55:20.854Z,79.04
2023-05-26T04:57:54.178Z,78.57
2023-05-26T05:00:31.403Z,78.89
2023-05-26T05:03:05.186Z,78.97
2023-05-26T05:05:38.241Z,78.91
2023-05-26T05:08:11.596Z,78.62
2023-05-26T05:10:45.237Z,78.54
2023-05-26T05:13:18.577Z,79.23
2023-05-26T05:15:51.971Z,78.47
2023-05-26T05:18:25.644Z,78.08
2023-05-26T05:20:58.769Z,78.65
2023-05-26T05:23:35.280Z,78.63
2023-05-26T05:26:09.028Z,78.54
2023-05-26T05:28:42.339Z,78.22
2023-05-26T05:31:15.688Z,78.16
2023-05-26T05:33:50.491Z,77.87
2023-05-26T05:36:23.513Z,78.64
2023-05-26T05:38:56.941Z,78.06
2023-05-26T05:41:30.794Z,77.75
2023-05-26T05:44:04.424Z,77.82
2023-05-26T05:46:37.967Z,77.92
2023-05-26T05:49:11.573Z,77.18
2023-05-26T05:51:44.821Z,77.00
2023-05-26T05:54:18.246Z,76.67
2023-05-26T05:56:51.516Z,76.46
2023-05-26T05:59:24.824Z,76.66
2023-05-26T06:01:58.150Z,76.97
2023-05-26T06:04:31.537Z,76.77
2023-05-26T06:07:04.770Z,75.77
2023-05-26T06:09:38.122Z,75.84
2023-05-26T06:12:14.742Z,76.58
2023-05-26T06:14:48.238Z,76.42
2023-05-26T06:17:21.586Z,76.03
2023-05-26T06:19:55.219Z,75.87
2023-05-26T06:22:28.407Z,76.19
2023-05-26T06:25:01.802Z,75.84
2023-05-26T06:27:35.073Z,75.87
2023-05-26T06:30:11.015Z,75.32
2023-05-26T06:32:44.830Z,74.82
2023-05-26T06:35:18.457Z,75.20
2023-05-26T06:37:51.664Z,75.21
2023-05-26T06:40:25.091Z,74.16
2023-05-26T06:42:58.482Z,73.72
2023-05-26T06:45:31.737Z,73.81
2023-05-26T06:48:05.100Z,73.34
2023-05-26T06:50:38.661Z,73.16
2023-05-26T06:53:11.652Z,72.78
2023-05-26T06:55:45.394Z,72.94
2023-05-26T06:58:18.694Z,72.41
2023-05-26T07:01:05.362Z,73.39
2023-05-26T07:03:38.970Z,72.29
2023-05-26T07:06:12.542Z,72.66
2023-05-26T07:08:46.411Z,72.65
2023-05-26T07:11:19.767Z,71.33
2023-05-26T07:13:56.179Z,71.33
2023-05-26T07:16:29.429Z,70.32
2023-05-26T07:19:03.310Z,70.36
2023-05-26T07:21:36.972Z,69.89
2023-05-26T07:24:10.396Z,69.16
2023-05-26T07:26:43.783Z,68.87
2023-05-26T07:29:17.052Z,70.18
2023-05-26T07:31:50.452Z,69.70
2023-05-26T07:34:24.010Z,69.77
2023-05-26T07:36:57.420Z,70.37
2023-05-26T07:39:30.554Z,67.77
2023-05-26T07:42:03.923Z,67.46
2023-05-26T07:44:37.180Z,67.75
2023-05-26T07:47:11.529Z,67.28
2023-05-26T07:49:44.794Z,66.93
2023-05-26T07:52:18.332Z,67.12
2023-05-26T07:54:51.702Z,66.46
2023-05-26T07:57:30.127Z,66.85
2023-05-26T08:00:06.158Z,67.00
2023-05-26T08:02:40.216Z,66.55
2023-05-26T08:05:13.918Z,66.67
2023-05-26T08:07:47.229Z,65.88
2023-05-26T08:10:20.410Z,65.56
2023-05-26T08:12:53.793Z,65.57
2023-05-26T08:15:27.264Z,65.34
2023-05-26T08:18:01.001Z,63.13
2023-05-26T08:20:34.685Z,64.74
2023-05-26T08:23:08.801Z,62.69
2023-05-26T08:25:41.785Z,63.43
2023-05-26T08:28:15.395Z,64.17
2023-05-26T08:30:49.011Z,65.19
2023-05-26T08:33:22.399Z,65.61
2023-05-26T08:35:56.189Z,64.99
2023-05-26T08:38:30.677Z,63.67
2023-05-26T08:41:07.840Z,61.79
2023-05-26T08:46:29.292Z,63.37
2023-05-26T08:49:04.679Z,61.94
2023-05-26T08:51:45.955Z,62.98
2023-05-26T08:54:19.517Z,61.84
2023-05-26T08:56:54.004Z,62.28
2023-05-26T08:59:29.930Z,60.03
2023-05-26T09:02:03.465Z,59.65
2023-05-26T09:04:37.166Z,58.07
2023-05-26T09:09:48.772Z,58.91
2023-05-26T09:12:23.189Z,57.97
2023-05-26T09:14:57.736Z,60.22
2023-05-26T09:17:36.718Z,57.41
2023-05-26T09:20:13.059Z,60.44
2023-05-26T09:22:48.141Z,57.63
2023-05-26T09:25:25.542Z,57.42
2023-05-26T09:28:06.681Z,54.78
2023-05-26T09:30:45.447Z,56.63
2023-05-26T09:33:21.192Z,55.84
2023-05-26T09:35:57.152Z,54.56
2023-05-26T09:38:33.549Z,55.50
2023-05-26T09:41:07.526Z,54.12
2023-05-26T09:43:40.517Z,53.89
2023-05-26T09:46:27.044Z,52.07
2023-05-26T09:49:22.588Z,52.79
2023-05-26T09:52:12.754Z,50.26
2023-05-26T09:54:47.159Z,50.98
2023-05-26T09:57:28.697Z,48.46
2023-05-26T10:00:08.816Z,49.73
2023-05-26T10:02:44.289Z,51.19
2023-05-26T10:05:19.677Z,51.38
2023-05-26T10:07:56.536Z,47.95
2023-05-26T10:10:32.553Z,49.14
2023-05-26T10:13:07.019Z,48.32
2023-05-26T10:15:40.349Z,45.77
2023-05-26T10:18:13.754Z,46.79
2023-05-26T10:20:55.676Z,44.90
2023-05-26T10:23:38.628Z,46.04
2023-05-26T10:26:21.391Z,48.31
2023-05-26T10:29:04.307Z,47.17
2023-05-26T10:31:41.250Z,47.67
2023-05-26T10:34:46.230Z,45.83
2023-05-26T10:37:21.842Z,43.48
2023-05-26T10:39:55.852Z,48.46
2023-05-26T10:42:32.743Z,43.64
2023-05-26T10:45:23.318Z,42.13
2023-05-26T10:48:07.130Z,43.98
2023-05-26T10:51:10.437Z,42.68
2023-05-26T10:53:48.556Z,42.32
2023-05-26T10:56:26.963Z,42.67
2023-05-26T10:59:04.647Z,41.90
2023-05-26T11:01:39.298Z,40.53
2023-05-26T11:04:15.771Z,39.36
2023-05-26T11:06:55.389Z,39.46
2023-05-26T11:09:30.732Z,39.18
2023-05-26T11:12:09.429Z,41.97
2023-05-26T11:14:42.775Z,40.00
2023-05-26T11:17:22.411Z,39.81
2023-05-26T11:20:03.554Z,40.21
2023-05-26T11:22:37.648Z,42.61
2023-05-26T11:25:13.397Z,40.62
2023-05-26T11:27:53.551Z,38.53
2023-05-26T11:30:36.353Z,37.40
2023-05-26T11:33:16.587Z,38.69
2023-05-26T11:35:49.579Z,35.64
2023-05-26T11:38:25.088Z,35.68
2023-05-26T11:40:58.452Z,39.71
2023-05-26T11:43:31.927Z,38.21
2023-05-26T11:46:08.540Z,36.88
2023-05-26T11:48:45.521Z,39.28
2023-05-26T11:51:21.402Z,38.11
2023-05-26T11:54:00.662Z,38.59
2023-05-26T11:56:41.118Z,40.30
2023-05-26T11:59:19.919Z,39.96
2023-05-26T12:01:53.761Z,39.34
2023-05-26T12:04:34.859Z,38.40
2023-05-26T12:07:07.992Z,38.65
2023-05-26T12:09:42.520Z,37.66
2023-05-26T12:12:16.633Z,37.76
2023-05-26T12:14:50.002Z,37.73
2023-05-26T12:17:25.254Z,36.86
2023-05-26T12:20:01.753Z,35.73
2023-05-26T12:22:35.343Z,36.74
2023-05-26T12:25:09.844Z,36.39
2023-05-26T12:27:43.632Z,34.64
2023-05-26T12:31:02.028Z,34.59
2023-05-26T12:33:22.676Z,34.65
2023-05-26T12:35:56.505Z,36.88
2023-05-26T12:38:40.401Z,33.67
2023-05-26T12:41:13.699Z,32.48
2023-05-26T12:43:46.967Z,35.25
2023-05-26T12:46:20.301Z,35.22
2023-05-26T12:48:56.649Z,36.42
2023-05-26T12:51:32.196Z,34.81
2023-05-26T12:54:06.292Z,34.22
2023-05-26T12:56:40.250Z,35.09
2023-05-26T12:59:19.507Z,35.88
2023-05-26T13:01:54.515Z,35.53
2023-05-26T13:04:29.072Z,32.90
2023-05-26T13:07:03.868Z,32.57
2023-05-26T13:09:37.190Z,31.61
2023-05-26T13:12:12.531Z,32.64
2023-05-26T13:14:45.859Z,33.70
2023-05-26T13:17:20.075Z,32.99
2023-05-26T13:19:53.847Z,31.15
2023-05-26T13:22:27.515Z,32.14
2023-05-26T13:25:00.987Z,33.98
2023-05-26T13:27:34.252Z,31.75
2023-05-26T13:30:08.707Z,32.17
2023-05-26T13:32:42.119Z,30.18
2023-05-26T13:35:16.088Z,31.05
2023-05-26T13:37:50.811Z,31.69
2023-05-26T13:40:25.726Z,33.14
2023-05-26T13:42:59.006Z,32.22
2023-05-26T13:45:33.702Z,31.54
2023-05-26T13:48:08.580Z,32.29
2023-05-26T13:50:42.191Z,31.73
2023-05-26T13:53:15.509Z,30.46
2023-05-26T13:55:50.881Z,32.36
2023-05-26T13:58:24.486Z,32.64
2023-05-26T14:00:58.454Z,31.26
2023-05-26T14:03:32.230Z,32.05
2023-05-26T14:06:05.853Z,30.77
2023-05-26T14:08:39.113Z,31.92
2023-05-26T14:11:12.389Z,32.04
2023-05-26T14:13:45.762Z,31.56
2023-05-26T14:16:19.106Z,32.55
2023-05-26T14:19:07.253Z,32.31
2023-05-26T14:22:09.416Z,32.07
2023-05-26T14:24:41.855Z,32.71
2023-05-26T14:27:15.419Z,31.46
2023-05-26T14:29:48.699Z,31.09
2023-05-26T14:32:22.027Z,31.00
2023-05-26T14:34:55.378Z,31.18
2023-05-26T14:37:29.170Z,33.04
2023-05-26T14:40:02.633Z,31.63
2023-05-26T14:42:36.400Z,31.13
2023-05-26T14:45:11.695Z,32.88
2023-05-26T14:47:45.079Z,32.16
2023-05-26T14:50:20.854Z,33.49
2023-05-26T14:52:56.025Z,31.53
2023-05-26T14:55:29.890Z,31.06
2023-05-26T14:58:11.098Z,30.50
2023-05-26T15:00:45.277Z,31.07
2023-05-26T15:03:18.698Z,31.81
2023-05-26T15:05:52.423Z,31.54
2023-05-26T15:08:26.060Z,30.81
2023-05-26T15:10:59.294Z,32.38
2023-05-26T15:13:32.519Z,31.48
2023-05-26T15:16:05.957Z,31.03
2023-05-26T15:18:39.613Z,30.65
2023-05-26T15:21:13.015Z,30.51
2023-05-26T15:23:46.679Z,29.89
2023-05-26T15:26:20.043Z,30.76
2023-05-26T15:28:53.282Z,29.77
2023-05-26T15:31:26.611Z,30.79
2023-05-26T15:34:00.041Z,30.79
2023-05-26T15:36:33.786Z,30.33
2023-05-26T15:39:07.403Z,31.08
2023-05-26T15:41:41.060Z,31.18
2023-05-26T15:44:14.961Z,31.22
2023-05-26T15:46:48.283Z,30.79
2023-05-26T15:49:23.098Z,30.93
2023-05-26T15:51:57.341Z,30.33
2023-05-26T15:54:30.840Z,31.14
2023-05-26T15:57:10.884Z,32.31
2023-05-26T15:59:54.875Z,31.52
2023-05-26T16:02:29.044Z,31.62
2023-05-26T16:05:02.446Z,31.96
2023-05-26T16:07:35.801Z,31.72
2023-05-26T16:10:11.986Z,32.19
2023-05-26T16:12:45.722Z,32.58
2023-05-26T16:15:21.211Z,32.21
2023-05-26T16:17:55.849Z,32.95
2023-05-26T16:20:29.264Z,33.71
2023-05-26T16:23:03.550Z,34.33
2023-05-26T16:25:36.905Z,33.23
2023-05-26T16:28:10.307Z,33.32
2023-05-26T16:30:43.423Z,34.10
2023-05-26T16:33:18.859Z,33.62
2023-05-26T16:35:54.287Z,34.33
2023-05-26T16:38:31.887Z,33.56
2023-05-26T16:41:05.430Z,34.26
2023-05-26T16:46:15.149Z,34.63
2023-05-26T16:48:48.637Z,34.98
2023-05-26T16:51:22.017Z,35.16
2023-05-26T16:53:55.380Z,34.51
2023-05-26T16:56:28.750Z,35.15
2023-05-26T16:59:02.059Z,35.34
2023-05-26T17:01:35.098Z,34.92
2023-05-26T17:04:10.890Z,35.32
2023-05-26T17:06:45.542Z,35.21
2023-05-26T17:09:19.031Z,35.93
2023-05-26T17:11:52.464Z,36.01
2023-05-26T17:14:25.742Z,36.49
2023-05-26T17:16:59.030Z,37.02
2023-05-26T17:19:33.487Z,37.14
2023-05-26T17:22:07.290Z,37.22
2023-05-26T17:24:40.728Z,37.48
2023-05-26T17:27:15.179Z,37.49
2023-05-26T17:29:48.490Z,37.65
2023-05-26T17:32:21.757Z,37.94
2023-05-26T17:34:55.021Z,37.72
2023-05-26T17:37:28.632Z,38.17
2023-05-26T17:40:02.312Z,38.66
2023-05-26T17:42:35.788Z,38.98
2023-05-26T17:45:12.192Z,38.80
2023-05-26T17:47:45.484Z,38.50
2023-05-26T17:50:19.057Z,39.07
2023-05-26T17:52:52.546Z,39.19
2023-05-26T17:55:25.947Z,39.39
2023-05-26T17:57:59.306Z,39.72
2023-05-26T18:00:32.849Z,39.17
2023-05-26T18:03:06.225Z,40.06
2023-05-26T18:05:39.874Z,39.44
2023-05-26T18:08:13.729Z,40.27
2023-05-26T18:10:47.140Z,40.31
2023-05-26T18:13:20.723Z,40.36
2023-05-26T18:15:54.321Z,40.62
2023-05-26T18:18:27.501Z,40.75
2023-05-26T18:21:01.195Z,41.43
2023-05-26T18:23:35.152Z,41.29
2023-05-26T18:26:09.098Z,41.91
2023-05-26T18:28:42.636Z,42.16
2023-05-26T18:31:16.288Z,42.09
2023-05-26T18:33:49.405Z,42.54
2023-05-26T18:36:22.731Z,42.57
2023-05-26T18:38:56.076Z,42.56
2023-05-26T18:41:29.448Z,42.66
2023-05-26T18:44:02.884Z,42.90
2023-05-26T18:46:36.355Z,43.44
2023-05-26T18:49:09.675Z,43.63
2023-05-26T18:51:43.078Z,43.90
2023-05-26T18:54:16.974Z,43.66
2023-05-26T18:56:50.283Z,44.06
2023-05-26T18:59:23.652Z,44.50
2023-05-26T19:01:56.908Z,44.01
2023-05-26T19:04:30.052Z,44.40
2023-05-26T19:07:03.381Z,44.93
2023-05-26T19:09:36.800Z,44.63
2023-05-26T19:12:10.944Z,45.01
2023-05-26T19:14:44.209Z,45.12
2023-05-26T19:17:17.476Z,45.09
2023-05-26T19:19:50.598Z,45.48
2023-05-26T19:22:23.913Z,45.68
2023-05-26T19:24:57.699Z,45.93
2023-05-26T19:27:31.130Z,46.05
2023-05-26T19:30:04.708Z,46.57
2023-05-26T19:32:38.629Z,45.94
2023-05-26T19:35:14.402Z,46.96
2023-05-26T19:37:47.962Z,46.15
2023-05-26T19:40:21.410Z,45.99
2023-05-26T19:42:54.983Z,46.88
2023-05-26T19:45:29.133Z,47.44
2023-05-26T19:48:02.552Z,46.92
2023-05-26T19:50:35.841Z,46.86
2023-05-26T19:53:09.143Z,47.08
2023-05-26T19:55:42.565Z,47.10
2023-05-26T19:58:15.896Z,48.19
2023-05-26T20:00:49.583Z,48.11
2023-05-26T20:03:23.549Z,47.86
2023-05-26T20:05:56.916Z,48.15
2023-05-26T20:08:31.523Z,48.72
2023-05-26T20:11:05.188Z,48.27
2023-05-26T20:13:38.690Z,48.68
2023-05-26T20:16:12.616Z,48.97
2023-05-26T20:18:45.967Z,48.39
2023-05-26T20:21:19.091Z,48.38
2023-05-26T20:23:52.690Z,49.28
2023-05-26T20:26:26.255Z,49.64
2023-05-26T20:28:59.912Z,49.02
2023-05-26T20:31:33.212Z,49.52
2023-05-26T20:34:06.478Z,49.51
2023-05-26T20:36:39.940Z,50.04
2023-05-26T20:39:13.691Z,50.05
2023-05-26T20:41:47.397Z,50.47
2023-05-26T20:44:21.020Z,50.57
2023-05-26T20:46:54.349Z,51.05
2023-05-26T20:49:27.986Z,50.71
2023-05-26T20:52:01.057Z,51.19
2023-05-26T20:54:34.438Z,51.13
2023-05-26T20:57:09.241Z,51.02
2023-05-26T20:59:45.580Z,51.53
2023-05-26T21:02:19.197Z,51.27
2023-05-26T21:04:52.810Z,52.17
2023-05-26T21:07:28.361Z,52.26
2023-05-26T21:10:01.968Z,52.19
2023-05-26T21:12:35.288Z,52.76
2023-05-26T21:15:11.327Z,52.60
2023-05-26T21:17:45.089Z,52.89
2023-05-26T21:20:18.530Z,53.20
2023-05-26T21:22:51.884Z,53.28
2023-05-26T21:25:25.125Z,53.73
2023-05-26T21:27:58.443Z,54.07
2023-05-26T21:30:32.186Z,54.44
2023-05-26T21:33:08.359Z,54.54
2023-05-26T21:35:42.124Z,54.95
2023-05-26T21:38:15.714Z,55.66
2023-05-26T21:40:49.001Z,55.97
2023-05-26T21:43:22.306Z,56.41
2023-05-26T21:45:56.089Z,56.70
2023-05-26T21:48:29.833Z,56.93
2023-05-26T21:51:03.250Z,57.40
2023-05-26T21:53:36.745Z,57.17
2023-05-26T21:56:11.323Z,57.52
2023-05-26T21:58:44.897Z,58.21
2023-05-26T22:01:18.267Z,57.70
2023-05-26T22:03:52.044Z,58.43
2023-05-26T22:06:25.855Z,58.07
2023-05-26T22:08:59.542Z,58.22
2023-05-26T22:11:33.091Z,58.41
2023-05-26T22:14:21.397Z,58.42
2023-05-26T22:16:58.554Z,58.76
2023-05-26T22:19:31.862Z,59.22
2023-05-26T22:22:05.734Z,59.38
2023-05-26T22:24:38.932Z,59.90
2023-05-26T22:27:12.371Z,59.73
2023-05-26T22:29:45.707Z,60.01
2023-05-26T22:32:19.053Z,60.33
2023-05-26T22:34:52.370Z,60.37
2023-05-26T22:37:25.757Z,59.59
2023-05-26T22:39:59.095Z,61.32
2023-05-26T22:42:32.383Z,60.59
2023-05-26T22:45:05.794Z,61.40
2023-05-26T22:47:39.143Z,60.39
2023-05-26T22:50:15.048Z,60.97
2023-05-26T22:52:48.358Z,61.30
2023-05-26T22:55:26.058Z,61.88
2023-05-26T22:58:06.097Z,62.11
2023-05-26T23:00:39.731Z,61.24
2023-05-26T23:03:13.463Z,62.47
2023-05-26T23:05:47.184Z,62.33
2023-05-26T23:08:20.550Z,61.88
2023-05-26T23:10:53.542Z,62.43
2023-05-26T23:13:26.860Z,62.99
2023-05-26T23:16:00.469Z,62.94
2023-05-26T23:18:34.611Z,62.80
2023-05-26T23:21:08.906Z,62.96
2023-05-26T23:23:42.241Z,63.53
2023-05-26T23:26:15.475Z,63.14
2023-05-26T23:28:48.758Z,63.35
2023-05-26T23:31:22.242Z,63.50
2023-05-26T23:33:55.912Z,63.79
2023-05-26T23:36:29.282Z,64.40
2023-05-26T23:39:02.521Z,64.17
2023-05-26T23:41:35.897Z,65.11
2023-05-26T23:44:09.240Z,64.00
2023-05-26T23:46:42.651Z,63.87
2023-05-26T23:49:16.378Z,63.57
2023-05-26T23:51:49.701Z,64.16
2023-05-26T23:54:23.026Z,63.99
2023-05-26T23:56:56.055Z,65.28
2023-05-26T23:59:29.586Z,64.72
